NCAR-RAP Real-Time Weather Data

Output produced by METARs form (06 May 2021  17:05 UTC)
found at http://weather.rap.ucar.edu/surface/
 
KAUS 061653Z 00000KT 10SM R18L/3000VP6000FT CLR 24/16 A3021 RMK AO2 SLP225 T02440161
KAUS 061553Z VRB04KT 10SM CLR 22/16 A3022 RMK AO2 SLP228 T02220161
KAUS 061453Z 07004KT 10SM CLR 20/16 A3022 RMK AO2 SLP230 T02000156 51010
KAUS 061353Z 04005KT 10SM CLR 18/14 A3022 RMK AO2 SLP229 T01780144
KAUS 061253Z 01005KT 10SM FEW065 16/13 A3021 RMK AO2 SLP227 T01560133
KAUS 061153Z 36005KT 10SM FEW070 12/11 A3019 RMK AO2 SLP220 T01220111 10128 20100 53027
KAUS 061053Z 36008KT 10SM CLR 13/12 A3016 RMK AO2 SLP210 T01280117
KAUS 060953Z 35004KT 10SM CLR 11/11 A3014 RMK AO2 SLP201 T01110111
KAUS 060853Z 00000KT 10SM CLR 12/11 A3011 RMK AO2 SLP192 T01170111 55004
KAUS 060753Z 00000KT 10SM CLR 11/11 A3011 RMK AO2 SLP192 T01060106
KAUS 060653Z 00000KT 10SM CLR 12/12 A3012 RMK AO2 SLP195 T01220117
KAUS 060553Z 00000KT 10SM CLR 12/12 A3012 RMK AO2 SLP197 T01170117 10239 20117 402560117 51010
KAUS 060453Z 00000KT 10SM CLR 13/13 A3012 RMK AO2 SLP195 T01330128
KAUS 060353Z 00000KT 10SM CLR 14/12 A3011 RMK AO2 SLP193 T01390117
KAUS 060253Z 00000KT 10SM CLR 16/12 A3009 RMK AO2 SLP187 T01610117 53018